createdAt,value
2018-01-01T00:00:44.129Z,73.02
2018-01-01T00:01:44.161Z,72.83
2018-01-01T00:02:43.943Z,72.16
2018-01-01T00:03:43.924Z,72.74
2018-01-01T00:04:43.965Z,72.83
2018-01-01T00:05:43.956Z,72.64
2018-01-01T00:06:44.406Z,72.74
2018-01-01T00:07:44.260Z,71.88
2018-01-01T00:08:44.008Z,71.97
2018-01-01T00:09:44.026Z,71.94
2018-01-01T00:10:44.290Z,71.69
2018-01-01T00:11:44.325Z,71.69
2018-01-01T00:12:44.071Z,71.88
2018-01-01T00:13:44.338Z,71.5
2018-01-01T00:14:44.104Z,71.22
2018-01-01T00:15:44.375Z,71.12
2018-01-01T00:16:44.389Z,70.64
2018-01-01T00:17:44.419Z,70.64
2018-01-01T00:18:44.180Z,70.83
2018-01-01T00:19:44.197Z,70.83
2018-01-01T00:20:44.201Z,70.83
2018-01-01T00:21:44.268Z,70.45
2018-01-01T00:22:44.235Z,70.17
2018-01-01T00:23:44.248Z,69.98
2018-01-01T00:24:44.517Z,70.17
2018-01-01T00:25:44.292Z,70.07
2018-01-01T00:26:44.552Z,69.88
2018-01-01T00:27:44.315Z,69.79
2018-01-01T00:28:44.333Z,70.07
2018-01-01T00:29:44.418Z,69.6
2018-01-01T00:30:44.367Z,69.12
2018-01-01T00:31:44.631Z,69.6
2018-01-01T00:32:44.397Z,68.93
2018-01-01T00:33:44.669Z,69.21
2018-01-01T00:34:44.682Z,68.27
2018-01-01T00:35:44.445Z,67.98
2018-01-01T00:36:44.513Z,67.41
2018-01-01T00:37:44.480Z,66.94
2018-01-01T00:38:44.748Z,66.94
2018-01-01T00:39:44.512Z,67.03
2018-01-01T00:40:44.780Z,66.49
2018-01-01T00:41:44.795Z,66.39
2018-01-01T00:42:44.561Z,65.92
2018-01-01T00:43:44.577Z,65.64
2018-01-01T00:44:44.593Z,65.16
2018-01-01T00:45:44.859Z,65.16
2018-01-01T00:46:44.877Z,64.97
2018-01-01T00:47:44.926Z,65.16
2018-01-01T00:48:44.912Z,64.59
2018-01-01T00:49:44.675Z,64.5
2018-01-01T00:50:44.691Z,64.87
2018-01-01T00:51:44.961Z,64.5
2018-01-01T00:52:44.727Z,64.87
2018-01-01T00:53:45.061Z,63.92
2018-01-01T00:54:45.009Z,64.78
2018-01-01T00:55:44.777Z,64.21
2018-01-01T00:56:44.791Z,64.02
2018-01-01T00:57:44.821Z,64.11
2018-01-01T00:58:45.077Z,64.11
2018-01-01T00:59:45.096Z,64.02
2018-01-01T01:00:44.869Z,64.5
2018-01-01T01:01:44.873Z,64.21
2018-01-01T01:02:45.148Z,63.92
2018-01-01T01:03:45.158Z,63.92
2018-01-01T01:04:45.179Z,63.83
2018-01-01T01:05:44.942Z,63.45
2018-01-01T01:06:44.962Z,63.17
2018-01-01T01:07:44.976Z,63.17
2018-01-01T01:08:46.396Z,63.45
2018-01-01T01:09:45.011Z,63.35
2018-01-01T01:10:45.026Z,62.97
2018-01-01T01:11:45.045Z,63.67
2018-01-01T01:12:45.313Z,63.26
2018-01-01T01:13:45.330Z,63.54
2018-01-01T01:14:45.096Z,63.26
2018-01-01T01:15:45.366Z,63.35
2018-01-01T01:16:45.130Z,63.64
2018-01-01T01:17:45.349Z,64.11
2018-01-01T01:18:45.415Z,63.67
2018-01-01T01:19:45.177Z,63.48
2018-01-01T01:20:45.449Z,63.54
2018-01-01T01:21:45.463Z,63.35
2018-01-01T01:22:45.488Z,63.57
2018-01-01T01:23:45.297Z,63.86
2018-01-01T01:24:45.264Z,63.29
2018-01-01T01:25:45.542Z,63.29
2018-01-01T01:26:45.300Z,63.29
2018-01-01T01:27:45.315Z,63.67
2018-01-01T01:28:45.582Z,63.29
2018-01-01T01:29:45.347Z,63.57
2018-01-01T01:30:45.377Z,63.35
2018-01-01T01:31:45.633Z,63.64
2018-01-01T01:32:45.405Z,63.01
2018-01-01T01:33:45.666Z,63.2
2018-01-01T01:34:45.688Z,63.39
2018-01-01T01:35:45.705Z,63.48
2018-01-01T01:36:45.718Z,63.48
2018-01-01T01:37:45.737Z,63.39
2018-01-01T01:38:45.501Z,63.2
2018-01-01T01:39:45.769Z,63.2
2018-01-01T01:40:45.787Z,63.39
2018-01-01T01:41:45.805Z,63.1
2018-01-01T01:42:45.581Z,63.48
2018-01-01T01:43:45.838Z,63.57
2018-01-01T01:44:45.858Z,63.57
2018-01-01T01:45:45.872Z,63.2
2018-01-01T01:46:45.891Z,63.39
2018-01-01T01:47:45.928Z,63.57
2018-01-01T01:48:45.927Z,63.48
2018-01-01T01:49:45.690Z,63.57
2018-01-01T01:50:45.705Z,63.48
2018-01-01T01:51:45.976Z,63.29
2018-01-01T01:52:45.989Z,63.57
2018-01-01T01:53:46.009Z,63.57
2018-01-01T01:54:46.027Z,63.67
2018-01-01T01:55:46.043Z,63.86
2018-01-01T01:56:46.060Z,63.48
2018-01-01T01:57:46.081Z,63.48
2018-01-01T01:58:46.096Z,63.57
2018-01-01T01:59:45.862Z,63.57
2018-01-01T02:00:45.879Z,63.67
2018-01-01T02:01:45.896Z,63.48
2018-01-01T02:02:45.913Z,63.39
2018-01-01T02:03:46.178Z,63.2
2018-01-01T02:04:46.197Z,63.48
2018-01-01T02:05:45.963Z,63.1
2018-01-01T02:06:46.240Z,63.2
2018-01-01T02:07:45.995Z,63.57
2018-01-01T02:08:46.267Z,62.81
2018-01-01T02:09:46.029Z,63.29
2018-01-01T02:10:46.301Z,63.48
2018-01-01T02:11:46.316Z,63.2
2018-01-01T02:12:46.336Z,62.81
2018-01-01T02:13:46.100Z,63.57
2018-01-01T02:14:46.117Z,63.67
2018-01-01T02:15:46.427Z,63.48
2018-01-01T02:16:46.358Z,64.15
2018-01-01T02:17:46.421Z,64.4
2018-01-01T02:18:46.442Z,63.76
2018-01-01T02:19:46.203Z,63.76
2018-01-01T02:20:46.473Z,63.57
2018-01-01T02:21:46.237Z,63.76
2018-01-01T02:22:46.258Z,64.24
2018-01-01T02:23:46.271Z,63.96
2018-01-01T02:24:46.541Z,64.05
2018-01-01T02:25:46.554Z,64.9
2018-01-01T02:26:46.324Z,64.62
2018-01-01T02:27:46.596Z,64.72
2018-01-01T02:28:46.608Z,64.81
2018-01-01T02:29:46.627Z,64.81
2018-01-01T02:30:46.666Z,65.19
2018-01-01T02:31:46.665Z,65.19
2018-01-01T02:32:46.685Z,65.19
2018-01-01T02:33:46.696Z,65.1
2018-01-01T02:34:46.459Z,65.38
2018-01-01T02:35:46.730Z,65.38
2018-01-01T02:36:46.497Z,65.29
2018-01-01T02:37:46.511Z,65.48
2018-01-01T02:38:46.784Z,66.05
2018-01-01T02:39:46.794Z,65.67
2018-01-01T02:40:46.562Z,65.77
2018-01-01T02:41:46.831Z,66.53
2018-01-01T02:42:46.846Z,66.33
2018-01-01T02:43:46.613Z,66.72
2018-01-01T02:44:46.631Z,66.33
2018-01-01T02:45:46.902Z,66.81
2018-01-01T02:46:46.918Z,67
2018-01-01T02:47:46.683Z,67.29
2018-01-01T02:48:46.957Z,67.1
2018-01-01T02:49:46.972Z,67.1
2018-01-01T02:50:46.986Z,67
2018-01-01T02:51:47.004Z,67.29
2018-01-01T02:52:47.021Z,66.91
2018-01-01T02:53:47.037Z,67.67
2018-01-01T02:54:47.058Z,67.57
2018-01-01T02:55:47.078Z,67.67
2018-01-01T02:56:47.092Z,67.76
2018-01-01T02:57:46.857Z,67.76
2018-01-01T02:58:47.136Z,68.33
2018-01-01T02:59:47.144Z,68.71
2018-01-01T03:00:46.905Z,68.9
2018-01-01T03:01:47.178Z,69
2018-01-01T03:02:46.943Z,68.62
2018-01-01T03:03:47.210Z,68.71
2018-01-01T03:04:46.976Z,68.81
2018-01-01T03:05:46.991Z,69.19
2018-01-01T03:06:47.261Z,68.9
2018-01-01T03:07:47.278Z,68.81
2018-01-01T03:08:47.297Z,69
2018-01-01T03:09:47.063Z,69.1
2018-01-01T03:10:47.336Z,69.48
2018-01-01T03:11:47.346Z,69.85
2018-01-01T03:12:47.368Z,69.38
2018-01-01T03:13:47.388Z,70.33
2018-01-01T03:14:47.406Z,70.24
2018-01-01T03:15:47.415Z,70.81
2018-01-01T03:16:47.181Z,70.9
2018-01-01T03:17:47.451Z,70.72
2018-01-01T03:18:47.468Z,71.67
2018-01-01T03:19:47.486Z,71.91
2018-01-01T03:20:47.251Z,71.95
2018-01-01T03:21:47.524Z,71.86
2018-01-01T03:22:47.544Z,72.24
2018-01-01T03:23:47.306Z,72.42
2018-01-01T03:24:47.325Z,73
2018-01-01T03:25:47.339Z,73.57
2018-01-01T03:26:47.357Z,73.66
2018-01-01T03:27:47.372Z,73.47
2018-01-01T03:28:47.427Z,74.04
2018-01-01T03:29:47.408Z,74.14
2018-01-01T03:30:47.684Z,74.04
2018-01-01T03:31:47.443Z,73.95
2018-01-01T03:32:47.470Z,73.95
2018-01-01T03:33:47.476Z,74.04
2018-01-01T03:34:47.747Z,74.04
2018-01-01T03:35:47.764Z,74.14
2018-01-01T03:36:47.782Z,74.52
2018-01-01T03:37:47.546Z,74.62
2018-01-01T03:38:47.563Z,74.24
2018-01-01T03:39:47.586Z,74.8
2018-01-01T03:40:47.849Z,74.33
2018-01-01T03:41:47.862Z,74.14
2018-01-01T03:42:47.631Z,74.8
2018-01-01T03:43:47.901Z,74.71
2018-01-01T03:44:47.916Z,74.71
2018-01-01T03:45:47.936Z,74.99
2018-01-01T03:46:47.952Z,74.99
2018-01-01T03:47:47.720Z,74.8
2018-01-01T03:48:47.734Z,74.43
2018-01-01T03:49:48.004Z,74.9
2018-01-01T03:50:47.770Z,74.43
2018-01-01T03:51:47.785Z,74.62
2018-01-01T03:52:48.055Z,74.99
2018-01-01T03:53:48.072Z,74.99
2018-01-01T03:54:48.140Z,74.9
2018-01-01T03:55:47.861Z,74.14
2018-01-01T03:56:47.867Z,74.8
2018-01-01T03:57:48.142Z,74.52
2018-01-01T03:58:47.904Z,74.43
2018-01-01T03:59:48.270Z,74.24
2018-01-01T04:00:48.206Z,74.99
2018-01-01T04:01:47.957Z,75.28
2018-01-01T04:02:48.224Z,75.28
2018-01-01T04:03:48.244Z,75.19
2018-01-01T04:04:48.261Z,75.38
2018-01-01T04:05:48.026Z,75.19
2018-01-01T04:06:48.296Z,75.28
2018-01-01T04:07:48.315Z,74.9
2018-01-01T04:08:48.333Z,74.99
2018-01-01T04:09:48.400Z,75.09
2018-01-01T04:10:48.112Z,74.99
2018-01-01T04:11:48.384Z,74.99
2018-01-01T04:12:48.398Z,74.43
2018-01-01T04:13:48.171Z,74.62
2018-01-01T04:14:48.435Z,74.33
2018-01-01T04:15:48.200Z,74.99
2018-01-01T04:16:48.466Z,75.47
2018-01-01T04:17:48.484Z,75.76
2018-01-01T04:18:48.249Z,75.85
2018-01-01T04:19:48.525Z,75.76
2018-01-01T04:20:48.542Z,75.76
2018-01-01T04:21:48.302Z,76.42
2018-01-01T04:22:48.569Z,76.61
2018-01-01T04:23:48.339Z,77.28
2018-01-01T04:24:48.654Z,77.09
2018-01-01T04:25:48.625Z,78.04
2018-01-01T04:26:48.391Z,77
2018-01-01T04:27:48.413Z,77.76
2018-01-01T04:28:48.425Z,78.52
2018-01-01T04:29:48.691Z,78.23
2018-01-01T04:30:48.707Z,79.91
2018-01-01T04:31:48.727Z,80.29
2018-01-01T04:32:48.743Z,80.82
2018-01-01T04:33:48.760Z,81.67
2018-01-01T04:34:48.781Z,81.48
2018-01-01T04:35:48.794Z,82.34
2018-01-01T04:36:48.810Z,82.05
2018-01-01T04:37:48.574Z,82.24
2018-01-01T04:38:48.849Z,83
2018-01-01T04:39:48.912Z,83.1
2018-01-01T04:40:48.628Z,83.67
2018-01-01T04:41:48.641Z,83.62
2018-01-01T04:42:48.662Z,83.06
2018-01-01T04:43:48.674Z,84.29
2018-01-01T04:44:48.694Z,84.86
2018-01-01T04:45:48.965Z,86
2018-01-01T04:46:48.977Z,85.81
2018-01-01T04:47:48.740Z,86.34
2018-01-01T04:48:48.757Z,87.1
2018-01-01T04:49:49.030Z,87.76
2018-01-01T04:50:49.045Z,87.38
2018-01-01T04:51:49.056Z,87.57
2018-01-01T04:52:49.076Z,86.49
2018-01-01T04:53:48.838Z,86.77
2018-01-01T04:54:48.906Z,86.87
2018-01-01T04:55:48.869Z,86.11
2018-01-01T04:56:48.889Z,86.68
2018-01-01T04:57:49.154Z,86.58
2018-01-01T04:58:49.170Z,86.58
2018-01-01T04:59:49.192Z,86.68
2018-01-01T05:00:48.950Z,87.05
2018-01-01T05:01:48.964Z,86.2
2018-01-01T05:02:49.229Z,86.16
2018-01-01T05:03:48.995Z,86.35
2018-01-01T05:04:49.260Z,86.07
2018-01-01T05:05:49.277Z,85.82
2018-01-01T05:06:49.290Z,85.87
2018-01-01T05:07:49.303Z,84.97
2018-01-01T05:08:49.067Z,84.97
2018-01-01T05:09:49.136Z,85.44
2018-01-01T05:10:49.102Z,84.3
2018-01-01T05:11:49.381Z,84.4
2018-01-01T05:12:49.130Z,83.92
2018-01-01T05:13:49.394Z,83.54
2018-01-01T05:14:49.412Z,83.92
2018-01-01T05:15:49.426Z,83.73
2018-01-01T05:16:49.445Z,83.36
2018-01-01T05:17:49.205Z,83.73
2018-01-01T05:18:49.477Z,83.26
2018-01-01T05:19:49.241Z,83.16
2018-01-01T05:20:49.252Z,82.97
2018-01-01T05:21:49.528Z,82.88
2018-01-01T05:22:49.533Z,82.88
2018-01-01T05:23:49.546Z,82.12
2018-01-01T05:24:49.618Z,81.74
2018-01-01T05:25:49.327Z,82.21
2018-01-01T05:26:49.597Z,81.45
2018-01-01T05:27:49.609Z,81.65
2018-01-01T05:28:49.632Z,82.12
2018-01-01T05:29:49.638Z,81.45
2018-01-01T05:30:49.401Z,80.98
2018-01-01T05:31:49.667Z,81.07
2018-01-01T05:32:49.477Z,81.45
2018-01-01T05:33:49.461Z,80.6
2018-01-01T05:34:49.714Z,80.41
2018-01-01T05:35:49.738Z,80.41
2018-01-01T05:36:49.495Z,79.74
2018-01-01T05:37:49.762Z,80.6
2018-01-01T05:38:49.525Z,80.22
2018-01-01T05:39:49.841Z,79.88
2018-01-01T05:40:49.556Z,79.22
2018-01-01T05:41:49.826Z,79.55
2018-01-01T05:42:49.589Z,79.17
2018-01-01T05:43:49.600Z,79.6
2018-01-01T05:44:49.619Z,79.97
2018-01-01T05:45:49.884Z,79.12
2018-01-01T05:46:49.903Z,79.31
2018-01-01T05:47:49.915Z,79.5
2018-01-01T05:48:49.932Z,78.64
2018-01-01T05:49:49.694Z,78.45
2018-01-01T05:50:49.961Z,78.74
2018-01-01T05:51:49.728Z,78.51
2018-01-01T05:52:49.739Z,77.98
2018-01-01T05:53:49.757Z,78.51
2018-01-01T05:54:50.091Z,77.79
2018-01-01T05:55:50.040Z,78.55
2018-01-01T05:56:50.058Z,78.64
2018-01-01T05:57:49.818Z,78.23
2018-01-01T05:58:50.089Z,78.64
2018-01-01T05:59:49.849Z,78.27
2018-01-01T06:00:49.864Z,78.17
2018-01-01T06:01:49.880Z,78.45
2018-01-01T06:02:49.896Z,78.36
2018-01-01T06:03:50.163Z,78.42
2018-01-01T06:04:49.926Z,78.45
2018-01-01T06:05:49.940Z,78.74
2018-01-01T06:06:49.957Z,78.83
2018-01-01T06:07:49.972Z,78.55
2018-01-01T06:08:49.990Z,78.83
2018-01-01T06:09:50.255Z,78.74
2018-01-01T06:10:50.021Z,78.55
2018-01-01T06:11:50.084Z,79.5
2018-01-01T06:12:50.050Z,78.74
2018-01-01T06:13:50.319Z,78.64
2018-01-01T06:14:50.331Z,78.64
2018-01-01T06:15:50.346Z,79.22
2018-01-01T06:16:50.369Z,80.03
2018-01-01T06:17:50.384Z,79.84
2018-01-01T06:18:50.398Z,79.79
2018-01-01T06:19:50.408Z,79.84
2018-01-01T06:20:50.426Z,79.6
2018-01-01T06:21:50.441Z,79.27
2018-01-01T06:22:50.203Z,79.74
2018-01-01T06:23:50.221Z,79.79
2018-01-01T06:24:50.245Z,79.84
2018-01-01T06:25:50.250Z,79.74
2018-01-01T06:26:50.571Z,79.69
2018-01-01T06:27:50.533Z,79.65
2018-01-01T06:28:50.550Z,79.84
2018-01-01T06:29:50.316Z,79.79
2018-01-01T06:30:50.331Z,79.55
2018-01-01T06:31:50.347Z,80.69
2018-01-01T06:32:50.360Z,79.6
2018-01-01T06:33:50.376Z,79.88
2018-01-01T06:34:50.393Z,79.79
2018-01-01T06:35:50.408Z,79.65
2018-01-01T06:36:50.422Z,79.84
2018-01-01T06:37:50.437Z,80.41
2018-01-01T06:38:50.705Z,79.84
2018-01-01T06:39:50.717Z,80.64
2018-01-01T06:40:50.735Z,79.97
2018-01-01T06:41:50.551Z,80.32
2018-01-01T06:42:50.515Z,80.41
2018-01-01T06:43:50.531Z,80.03
2018-01-01T06:44:50.799Z,80.03
2018-01-01T06:45:50.818Z,80.51
2018-01-01T06:46:50.831Z,80.51
2018-01-01T06:47:50.591Z,80.41
2018-01-01T06:48:50.864Z,80.41
2018-01-01T06:49:50.626Z,80.32
2018-01-01T06:50:50.637Z,80.41
2018-01-01T06:51:50.906Z,80.51
2018-01-01T06:52:50.671Z,80.6
2018-01-01T06:53:50.686Z,80.74
2018-01-01T06:54:50.709Z,79.88
2018-01-01T06:55:50.719Z,80.41
2018-01-01T06:56:50.784Z,80.51
2018-01-01T06:57:50.749Z,80.32
2018-01-01T06:58:51.018Z,80.26
2018-01-01T06:59:50.778Z,80.64
2018-01-01T07:00:50.793Z,79.97
2018-01-01T07:01:50.808Z,80.45
2018-01-01T07:02:50.826Z,79.79
2018-01-01T07:03:51.094Z,80.6
2018-01-01T07:04:51.108Z,80.32
2018-01-01T07:05:50.899Z,80.55
2018-01-01T07:06:50.887Z,79.79
2018-01-01T07:07:50.903Z,79.97
2018-01-01T07:08:51.185Z,80.03
2018-01-01T07:09:50.936Z,79.74
2018-01-01T07:10:50.950Z,79.74
2018-01-01T07:11:51.017Z,80.16
2018-01-01T07:12:50.981Z,79.88
2018-01-01T07:13:51.248Z,79.69
2018-01-01T07:14:51.265Z,79.88
2018-01-01T07:15:51.279Z,79.6
2018-01-01T07:16:51.404Z,79.31
2018-01-01T07:17:51.351Z,79.41
2018-01-01T07:18:51.075Z,79.31
2018-01-01T07:19:51.090Z,79.12
2018-01-01T07:20:51.105Z,79.6
2018-01-01T07:21:51.375Z,79.6
2018-01-01T07:22:51.387Z,79.41
2018-01-01T07:23:51.403Z,79.69
2018-01-01T07:24:51.419Z,79.46
2018-01-01T07:25:51.182Z,78.93
2018-01-01T07:26:51.502Z,78.45
2018-01-01T07:27:51.464Z,78.55
2018-01-01T07:28:51.480Z,78.55
2018-01-01T07:29:51.497Z,78.42
2018-01-01T07:30:51.261Z,78.13
2018-01-01T07:31:51.529Z,78.36
2018-01-01T07:32:51.545Z,78.36
2018-01-01T07:33:51.561Z,78.74
2018-01-01T07:34:51.322Z,78.27
2018-01-01T07:35:51.339Z,78.17
2018-01-01T07:36:51.357Z,78.27
2018-01-01T07:37:51.627Z,77.79
2018-01-01T07:38:51.636Z,78.36
2018-01-01T07:39:51.402Z,78.17
2018-01-01T07:40:51.420Z,78.17
2018-01-01T07:41:51.483Z,77.7
2018-01-01T07:42:51.704Z,77.51
2018-01-01T07:43:51.713Z,77.41
2018-01-01T07:44:51.734Z,77.89
2018-01-01T07:45:51.495Z,77.7
2018-01-01T07:46:51.508Z,78.08
2018-01-01T07:47:51.776Z,77.51
2018-01-01T07:48:51.790Z,77.22
2018-01-01T07:49:51.554Z,77.12
2018-01-01T07:50:51.570Z,77.51
2018-01-01T07:51:51.918Z,77.03
2018-01-01T07:52:51.603Z,77.22
2018-01-01T07:53:51.868Z,77.03
2018-01-01T07:54:51.634Z,76.84
2018-01-01T07:55:51.908Z,76.75
2018-01-01T07:56:51.715Z,76.37
2018-01-01T07:57:51.935Z,76.46
2018-01-01T07:58:51.989Z,76.65
2018-01-01T07:59:51.968Z,76.46
2018-01-01T08:00:51.978Z,76.56
2018-01-01T08:01:51.993Z,76.27
2018-01-01T08:02:51.760Z,76.46
2018-01-01T08:03:51.776Z,76.37
2018-01-01T08:04:51.790Z,76.08
2018-01-01T08:05:52.057Z,75.7
2018-01-01T08:06:52.073Z,75.42
2018-01-01T08:07:52.089Z,75.32
2018-01-01T08:08:52.105Z,75.51
2018-01-01T08:09:52.123Z,75.04
2018-01-01T08:10:52.138Z,74.85
2018-01-01T08:11:51.948Z,74.47
2018-01-01T08:12:51.912Z,75.13
2018-01-01T08:13:52.184Z,74.37
2018-01-01T08:14:51.946Z,74.18
2018-01-01T08:15:52.214Z,74.47
2018-01-01T08:16:52.227Z,74.37
2018-01-01T08:17:51.993Z,74.66
2018-01-01T08:18:52.008Z,73.9
2018-01-01T08:19:52.277Z,73.9
2018-01-01T08:20:52.039Z,74.47
2018-01-01T08:21:52.312Z,74.08
2018-01-01T08:22:52.071Z,73.8
2018-01-01T08:23:52.086Z,73.8
2018-01-01T08:24:52.357Z,73.8
2018-01-01T08:25:52.370Z,73.71
2018-01-01T08:26:52.190Z,73.04
2018-01-01T08:27:52.401Z,73.04
2018-01-01T08:28:52.167Z,73.8
2018-01-01T08:29:52.437Z,73.52
2018-01-01T08:30:52.195Z,72.95
2018-01-01T08:31:52.217Z,73.61
2018-01-01T08:32:52.229Z,72.41
2018-01-01T08:33:52.480Z,73.33
2018-01-01T08:34:52.259Z,72.38
2018-01-01T08:35:52.530Z,72.66
2018-01-01T08:36:52.542Z,72.56
2018-01-01T08:37:52.558Z,72.75
2018-01-01T08:38:52.577Z,72.85
2018-01-01T08:39:52.338Z,73.04
2018-01-01T08:40:52.604Z,72.89
2018-01-01T08:41:52.442Z,71.75
2018-01-01T08:42:52.640Z,71.84
2018-01-01T08:43:52.661Z,71.75
2018-01-01T08:44:52.418Z,72.41
2018-01-01T08:45:52.432Z,71.84
2018-01-01T08:46:52.447Z,72.03
2018-01-01T08:47:52.715Z,71.75
2018-01-01T08:48:52.732Z,71.94
2018-01-01T08:49:52.746Z,72.03
2018-01-01T08:50:52.514Z,72.22
2018-01-01T08:51:52.781Z,71.81
2018-01-01T08:52:52.795Z,72.09
2018-01-01T08:53:52.560Z,71.71
2018-01-01T08:54:52.830Z,71.71
2018-01-01T08:55:52.591Z,72.13
2018-01-01T08:56:52.910Z,71.75
2018-01-01T08:57:52.877Z,71.66
2018-01-01T08:58:52.638Z,71.66
2018-01-01T08:59:52.655Z,71.75
2018-01-01T09:00:52.920Z,71.52
2018-01-01T09:01:52.939Z,71.71
2018-01-01T09:02:52.960Z,71.43
2018-01-01T09:03:52.973Z,71.75
2018-01-01T09:04:52.732Z,71.23
2018-01-01T09:05:53.008Z,71.56
2018-01-01T09:06:53.017Z,71.37
2018-01-01T09:07:52.783Z,71.46
2018-01-01T09:08:52.799Z,71.37
2018-01-01T09:09:53.066Z,70.89
2018-01-01T09:10:53.086Z,71.27
2018-01-01T09:11:53.145Z,71.18
2018-01-01T09:12:53.111Z,70.7
2018-01-01T09:13:53.130Z,71.27
2018-01-01T09:14:53.144Z,71.18
2018-01-01T09:15:53.175Z,71.37
2018-01-01T09:16:52.927Z,71.84
2018-01-01T09:17:52.938Z,71.75
2018-01-01T09:18:52.956Z,71.56
2018-01-01T09:19:53.234Z,71.08
2018-01-01T09:20:53.246Z,71.27
2018-01-01T09:21:53.257Z,71.46
2018-01-01T09:22:53.270Z,71.27
2018-01-01T09:23:53.034Z,71.46
2018-01-01T09:24:53.302Z,71.56
2018-01-01T09:25:53.320Z,71.66
2018-01-01T09:26:53.134Z,72.51
2018-01-01T09:27:53.111Z,71.75
2018-01-01T09:28:53.115Z,71.56
2018-01-01T09:29:53.130Z,71.27
2018-01-01T09:30:53.402Z,71.84
2018-01-01T09:31:53.414Z,71.66
2018-01-01T09:32:53.180Z,71.66
2018-01-01T09:33:53.449Z,71.75
2018-01-01T09:34:53.471Z,71.84
2018-01-01T09:35:53.229Z,72.22
2018-01-01T09:36:53.244Z,72.6
2018-01-01T09:37:53.258Z,72.51
2018-01-01T09:38:53.273Z,73.08
2018-01-01T09:39:53.294Z,72.41
2018-01-01T09:40:53.307Z,73.18
2018-01-01T09:41:53.624Z,72.99
2018-01-01T09:42:53.340Z,73.18
2018-01-01T09:43:53.355Z,73.08
2018-01-01T09:44:53.373Z,73.84
2018-01-01T09:45:53.639Z,73.08
2018-01-01T09:46:53.655Z,73.61
2018-01-01T09:47:53.672Z,73.46
2018-01-01T09:48:53.437Z,73.08
2018-01-01T09:49:53.460Z,72.6
2018-01-01T09:50:53.729Z,72.99
2018-01-01T09:51:53.487Z,73.18
2018-01-01T09:52:53.498Z,73.08
2018-01-01T09:53:53.515Z,73.46
2018-01-01T09:54:53.532Z,73.46
2018-01-01T09:55:53.844Z,73.27
2018-01-01T09:56:53.865Z,73.61
2018-01-01T09:57:53.831Z,73.27
2018-01-01T09:58:53.851Z,73.65
2018-01-01T09:59:53.611Z,73.55
2018-01-01T10:00:53.626Z,73.27
2018-01-01T10:01:53.640Z,73.84
2018-01-01T10:02:53.907Z,73.65
2018-01-01T10:03:53.925Z,73.84
2018-01-01T10:04:53.941Z,73.65
2018-01-01T10:05:53.962Z,74.03
2018-01-01T10:06:53.982Z,73.93
2018-01-01T10:07:53.990Z,73.65
2018-01-01T10:08:54.006Z,72.99
2018-01-01T10:09:54.023Z,73.55
2018-01-01T10:10:54.039Z,73.18
2018-01-01T10:11:54.101Z,72.89
2018-01-01T10:12:53.816Z,72.99
2018-01-01T10:13:53.835Z,72.7
2018-01-01T10:14:54.104Z,72.7
2018-01-01T10:15:54.118Z,72.7
2018-01-01T10:16:53.881Z,72.6
2018-01-01T10:17:54.151Z,72.41
2018-01-01T10:18:54.163Z,72.22
2018-01-01T10:19:54.184Z,71.84
2018-01-01T10:20:54.197Z,71.94
2018-01-01T10:21:54.231Z,72.03
2018-01-01T10:22:53.978Z,72.03
2018-01-01T10:23:54.244Z,71.84
2018-01-01T10:24:54.010Z,71.66
2018-01-01T10:25:54.292Z,72.22
2018-01-01T10:26:54.350Z,72.51
2018-01-01T10:27:54.059Z,72.32
2018-01-01T10:28:54.326Z,71.66
2018-01-01T10:29:54.091Z,71.46
2018-01-01T10:30:54.367Z,72.03
2018-01-01T10:31:54.124Z,71.75
2018-01-01T10:32:54.392Z,71.56
2018-01-01T10:33:54.161Z,71.56
2018-01-01T10:34:54.428Z,72.13
2018-01-01T10:35:54.191Z,72.22
2018-01-01T10:36:54.465Z,71.75
2018-01-01T10:37:54.475Z,71.84
2018-01-01T10:38:54.495Z,71.84
2018-01-01T10:39:54.509Z,72.32
2018-01-01T10:40:54.273Z,72.22
2018-01-01T10:41:54.594Z,72.51
2018-01-01T10:42:54.558Z,72.41
2018-01-01T10:43:54.322Z,71.84
2018-01-01T10:44:54.593Z,72.03
2018-01-01T10:45:54.356Z,71.94
2018-01-01T10:46:54.372Z,72.22
2018-01-01T10:47:54.635Z,71.56
2018-01-01T10:48:54.659Z,71.46
2018-01-01T10:49:54.417Z,71.27
2018-01-01T10:50:54.434Z,71.84
2018-01-01T10:51:54.453Z,71.84
2018-01-01T10:52:54.466Z,71.66
2018-01-01T10:53:54.738Z,71.84
2018-01-01T10:54:54.751Z,71.46
2018-01-01T10:55:54.768Z,71.37
2018-01-01T10:56:54.533Z,71.46
2018-01-01T10:57:54.600Z,71.94
2018-01-01T10:58:54.569Z,71.46
2018-01-01T10:59:54.833Z,70.93
2018-01-01T11:00:54.851Z,70.45
2018-01-01T11:01:54.871Z,70.36
2018-01-01T11:02:54.886Z,69.79
2018-01-01T11:03:54.902Z,69.69
2018-01-01T11:04:54.918Z,69.66
2018-01-01T11:05:54.682Z,69.6
2018-01-01T11:06:54.700Z,69.18
2018-01-01T11:07:54.967Z,69.31
2018-01-01T11:08:54.985Z,69.69
2018-01-01T11:09:54.999Z,69.69
2018-01-01T11:10:54.767Z,69.69
2018-01-01T11:11:54.787Z,69.37
2018-01-01T11:12:54.848Z,69.12
2018-01-01T11:13:55.072Z,69.02
2018-01-01T11:14:55.092Z,69.02
2018-01-01T11:15:55.100Z,68.74
2018-01-01T11:16:55.120Z,68.9
2018-01-01T11:17:54.885Z,69.27
2018-01-01T11:18:55.149Z,69.09
2018-01-01T11:19:54.914Z,69.09
2018-01-01T11:20:54.930Z,69.27
2018-01-01T11:21:55.199Z,68.9
2018-01-01T11:22:55.219Z,68.8
2018-01-01T11:23:54.981Z,69.27
2018-01-01T11:24:55.248Z,68.9
2018-01-01T11:25:55.267Z,69.09
2018-01-01T11:26:55.299Z,69.12
2018-01-01T11:27:55.098Z,68.84
2018-01-01T11:28:55.320Z,68.84
2018-01-01T11:29:55.078Z,68.27
2018-01-01T11:30:55.095Z,68.07
2018-01-01T11:31:55.112Z,67.41
2018-01-01T11:32:55.430Z,66.94
2018-01-01T11:33:55.146Z,67.41
2018-01-01T11:34:55.163Z,66.94
2018-01-01T11:35:55.434Z,66.65
2018-01-01T11:36:55.196Z,66.65
2018-01-01T11:37:55.466Z,66.74
2018-01-01T11:38:55.483Z,66.27
2018-01-01T11:39:55.258Z,65.92
2018-01-01T11:40:55.263Z,65.73
2018-01-01T11:41:55.281Z,65.35
2018-01-01T11:42:55.350Z,64.97
2018-01-01T11:43:55.568Z,64.5
2018-01-01T11:44:55.584Z,64.02
2018-01-01T11:45:55.350Z,63.54
2018-01-01T11:46:55.368Z,64.4
2018-01-01T11:47:55.383Z,64.69
2018-01-01T11:48:55.657Z,64.21
2018-01-01T11:49:55.719Z,63.54
2018-01-01T11:50:55.690Z,63.54
2018-01-01T11:51:55.710Z,63.54
2018-01-01T11:52:55.728Z,63.45
2018-01-01T11:53:55.491Z,62.97
2018-01-01T11:54:55.514Z,62.59
2018-01-01T11:55:55.798Z,62.59
2018-01-01T11:56:55.556Z,62.12
2018-01-01T11:57:55.623Z,61.93
2018-01-01T11:58:55.592Z,61.93
2018-01-01T11:59:55.850Z,62.59
2018-01-01T12:00:55.629Z,61.83
2018-01-01T12:01:55.645Z,62.56
2018-01-01T12:02:55.905Z,62.56
2018-01-01T12:03:55.922Z,62.3
2018-01-01T12:04:55.952Z,62.4
2018-01-01T12:05:55.717Z,61.74
2018-01-01T12:06:55.994Z,61.74
2018-01-01T12:07:55.994Z,62.21
2018-01-01T12:08:55.759Z,62.46
2018-01-01T12:09:55.808Z,62.94
2018-01-01T12:10:55.806Z,62.46
2018-01-01T12:11:56.075Z,62.3
2018-01-01T12:12:56.152Z,62.3
2018-01-01T12:13:55.848Z,62.12
2018-01-01T12:14:55.876Z,62.21
2018-01-01T12:15:55.880Z,61.83
2018-01-01T12:16:56.167Z,61.93
2018-01-01T12:17:55.921Z,61.45
2018-01-01T12:18:55.933Z,61.35
2018-01-01T12:19:56.207Z,61.64
2018-01-01T12:20:55.985Z,61.93
2018-01-01T12:21:55.999Z,62.12
2018-01-01T12:22:56.313Z,62.49
2018-01-01T12:23:56.299Z,62.49
2018-01-01T12:24:56.295Z,62.78
2018-01-01T12:25:56.326Z,62.3
2018-01-01T12:26:56.346Z,61.74
2018-01-01T12:27:56.412Z,60.97
2018-01-01T12:28:56.385Z,61.07
2018-01-01T12:29:56.133Z,61.45
2018-01-01T12:30:56.159Z,61.1
2018-01-01T12:31:56.437Z,60.82
2018-01-01T12:32:56.186Z,61.19
2018-01-01T12:33:56.458Z,61
2018-01-01T12:34:56.493Z,60.82
2018-01-01T12:35:56.525Z,60.82
2018-01-01T12:36:56.270Z,61.19
2018-01-01T12:37:56.548Z,60.72
2018-01-01T12:38:56.294Z,60.24
2018-01-01T12:39:56.583Z,60.34
2018-01-01T12:40:56.583Z,60.5
2018-01-01T12:41:56.613Z,60.78
2018-01-01T12:42:56.414Z,61.35
2018-01-01T12:43:56.407Z,61.45
2018-01-01T12:44:56.652Z,60.97
2018-01-01T12:45:56.690Z,60.94
2018-01-01T12:46:56.495Z,60.47
2018-01-01T12:47:56.725Z,59.9
2018-01-01T12:48:56.485Z,59.8
2018-01-01T12:49:56.502Z,60.09
2018-01-01T12:50:56.535Z,60.75
2018-01-01T12:51:56.788Z,59.9
2018-01-01T12:52:56.558Z,59.8
2018-01-01T12:53:56.587Z,59.23
2018-01-01T12:54:56.833Z,59.33
2018-01-01T12:55:56.621Z,59.42
2018-01-01T12:56:56.896Z,59.9